sensor_id;sensor_type;location;lat;lon;timestamp;P1;durP1;ratioP1;P2;durP2;ratioP2
29362;SDS011;16349;53.672;10.014;2023-02-28T00:00:55;7.37;;;5.17;;
29362;SDS011;16349;53.672;10.014;2023-02-28T00:03:21;7.23;;;4.57;;
29362;SDS011;16349;53.672;10.014;2023-02-28T00:05:48;10.23;;;3.90;;
29362;SDS011;16349;53.672;10.014;2023-02-28T00:08:15;7.00;;;4.47;;
29362;SDS011;16349;53.672;10.014;2023-02-28T00:10:42;5.43;;;3.37;;
29362;SDS011;16349;53.672;10.014;2023-02-28T00:13:33;6.93;;;3.33;;
29362;SDS011;16349;53.672;10.014;2023-02-28T00:16:01;8.07;;;3.70;;
29362;SDS011;16349;53.672;10.014;2023-02-28T00:18:29;6.97;;;4.43;;
29362;SDS011;16349;53.672;10.014;2023-02-28T00:20:56;5.40;;;3.37;;
29362;SDS011;16349;53.672;10.014;2023-02-28T00:23:22;5.87;;;3.40;;
29362;SDS011;16349;53.672;10.014;2023-02-28T00:25:49;8.87;;;3.90;;
29362;SDS011;16349;53.672;10.014;2023-02-28T00:28:17;6.33;;;3.60;;
29362;SDS011;16349;53.672;10.014;2023-02-28T00:30:45;4.30;;;3.10;;
29362;SDS011;16349;53.672;10.014;2023-02-28T00:33:12;3.53;;;2.87;;
29362;SDS011;16349;53.672;10.014;2023-02-28T00:35:39;5.27;;;2.77;;
29362;SDS011;16349;53.672;10.014;2023-02-28T00:38:08;6.73;;;3.10;;
29362;SDS011;16349;53.672;10.014;2023-02-28T00:40:35;4.33;;;2.90;;
29362;SDS011;16349;53.672;10.014;2023-02-28T00:43:02;4.33;;;2.90;;
29362;SDS011;16349;53.672;10.014;2023-02-28T00:45:30;5.77;;;2.73;;
29362;SDS011;16349;53.672;10.014;2023-02-28T00:47:57;3.97;;;2.77;;
29362;SDS011;16349;53.672;10.014;2023-02-28T00:50:24;2.90;;;2.57;;
29362;SDS011;16349;53.672;10.014;2023-02-28T00:52:51;4.00;;;2.90;;
29362;SDS011;16349;53.672;10.014;2023-02-28T00:55:19;4.43;;;2.63;;
29362;SDS011;16349;53.672;10.014;2023-02-28T00:57:47;5.83;;;3.33;;
29362;SDS011;16349;53.672;10.014;2023-02-28T01:00:14;4.70;;;2.70;;
29362;SDS011;16349;53.672;10.014;2023-02-28T01:02:41;3.80;;;2.90;;
29362;SDS011;16349;53.672;10.014;2023-02-28T01:05:10;6.10;;;2.87;;
29362;SDS011;16349;53.672;10.014;2023-02-28T01:07:37;5.70;;;3.00;;
29362;SDS011;16349;53.672;10.014;2023-02-28T01:10:04;9.57;;;2.90;;
29362;SDS011;16349;53.672;10.014;2023-02-28T01:12:32;6.07;;;3.33;;
29362;SDS011;16349;53.672;10.014;2023-02-28T01:14:59;5.93;;;3.00;;
29362;SDS011;16349;53.672;10.014;2023-02-28T01:17:25;4.67;;;3.47;;
29362;SDS011;16349;53.672;10.014;2023-02-28T01:19:52;5.07;;;2.83;;
29362;SDS011;16349;53.672;10.014;2023-02-28T01:22:21;5.33;;;3.03;;
29362;SDS011;16349;53.672;10.014;2023-02-28T01:24:48;6.57;;;3.17;;
29362;SDS011;16349;53.672;10.014;2023-02-28T01:27:15;7.60;;;3.00;;
29362;SDS011;16349;53.672;10.014;2023-02-28T01:29:42;4.40;;;2.87;;
29362;SDS011;16349;53.672;10.014;2023-02-28T01:32:10;4.07;;;3.33;;
29362;SDS011;16349;53.672;10.014;2023-02-28T01:34:37;7.33;;;3.30;;
29362;SDS011;16349;53.672;10.014;2023-02-28T01:37:04;4.27;;;2.57;;
29362;SDS011;16349;53.672;10.014;2023-02-28T01:39:33;3.43;;;2.90;;
29362;SDS011;16349;53.672;10.014;2023-02-28T01:41:59;5.37;;;2.97;;
29362;SDS011;16349;53.672;10.014;2023-02-28T01:47:42;5.40;;;3.13;;
29362;SDS011;16349;53.672;10.014;2023-02-28T01:50:12;4.47;;;2.63;;
29362;SDS011;16349;53.672;10.014;2023-02-28T01:52:43;4.80;;;3.20;;
29362;SDS011;16349;53.672;10.014;2023-02-28T01:55:14;3.90;;;2.87;;
29362;SDS011;16349;53.672;10.014;2023-02-28T01:57:45;3.90;;;3.03;;
29362;SDS011;16349;53.672;10.014;2023-02-28T02:00:20;4.30;;;2.50;;
29362;SDS011;16349;53.672;10.014;2023-02-28T02:02:52;4.87;;;2.50;;
29362;SDS011;16349;53.672;10.014;2023-02-28T02:05:21;4.10;;;3.20;;
29362;SDS011;16349;53.672;10.014;2023-02-28T02:07:50;3.93;;;2.90;;
29362;SDS011;16349;53.672;10.014;2023-02-28T02:10:22;8.90;;;2.90;;
29362;SDS011;16349;53.672;10.014;2023-02-28T02:13:02;4.63;;;3.00;;
29362;SDS011;16349;53.672;10.014;2023-02-28T02:15:40;5.37;;;2.47;;
29362;SDS011;16349;53.672;10.014;2023-02-28T02:18:13;3.47;;;2.70;;
29362;SDS011;16349;53.672;10.014;2023-02-28T02:20:59;4.13;;;3.03;;
29362;SDS011;16349;53.672;10.014;2023-02-28T02:23:56;3.47;;;2.73;;
29362;SDS011;16349;53.672;10.014;2023-02-28T02:26:45;5.00;;;3.20;;
29362;SDS011;16349;53.672;10.014;2023-02-28T02:29:28;5.70;;;2.77;;
29362;SDS011;16349;53.672;10.014;2023-02-28T02:35:22;10.77;;;3.30;;
29362;SDS011;16349;53.672;10.014;2023-02-28T02:37:57;4.33;;;3.40;;
29362;SDS011;16349;53.672;10.014;2023-02-28T02:40:32;7.30;;;3.93;;
29362;SDS011;16349;53.672;10.014;2023-02-28T02:43:06;6.07;;;3.50;;
29362;SDS011;16349;53.672;10.014;2023-02-28T02:45:38;3.70;;;3.23;;
29362;SDS011;16349;53.672;10.014;2023-02-28T02:48:11;6.03;;;3.77;;
29362;SDS011;16349;53.672;10.014;2023-02-28T02:50:43;5.23;;;2.97;;
29362;SDS011;16349;53.672;10.014;2023-02-28T02:53:13;3.93;;;3.50;;
29362;SDS011;16349;53.672;10.014;2023-02-28T02:55:42;5.13;;;3.30;;
29362;SDS011;16349;53.672;10.014;2023-02-28T02:58:17;5.63;;;3.30;;
29362;SDS011;16349;53.672;10.014;2023-02-28T03:00:48;7.07;;;3.60;;
29362;SDS011;16349;53.672;10.014;2023-02-28T03:03:18;4.57;;;3.27;;
29362;SDS011;16349;53.672;10.014;2023-02-28T03:05:55;7.53;;;3.63;;
29362;SDS011;16349;53.672;10.014;2023-02-28T03:08:23;5.17;;;3.40;;
29362;SDS011;16349;53.672;10.014;2023-02-28T03:10:55;5.10;;;3.37;;
29362;SDS011;16349;53.672;10.014;2023-02-28T03:13:31;6.50;;;3.23;;
29362;SDS011;16349;53.672;10.014;2023-02-28T03:16:34;6.57;;;3.57;;
29362;SDS011;16349;53.672;10.014;2023-02-28T03:19:09;3.60;;;2.60;;
29362;SDS011;16349;53.672;10.014;2023-02-28T03:21:49;5.73;;;2.70;;
29362;SDS011;16349;53.672;10.014;2023-02-28T03:24:50;6.27;;;3.13;;
29362;SDS011;16349;53.672;10.014;2023-02-28T03:27:23;6.67;;;3.17;;
29362;SDS011;16349;53.672;10.014;2023-02-28T03:29:55;3.77;;;3.23;;
29362;SDS011;16349;53.672;10.014;2023-02-28T03:32:28;5.77;;;3.70;;
29362;SDS011;16349;53.672;10.014;2023-02-28T03:35:00;6.57;;;3.27;;
29362;SDS011;16349;53.672;10.014;2023-02-28T03:37:53;4.97;;;3.47;;
29362;SDS011;16349;53.672;10.014;2023-02-28T03:40:27;7.57;;;3.20;;
29362;SDS011;16349;53.672;10.014;2023-02-28T03:42:58;5.17;;;3.17;;
29362;SDS011;16349;53.672;10.014;2023-02-28T03:45:29;5.40;;;3.10;;
29362;SDS011;16349;53.672;10.014;2023-02-28T03:48:00;5.20;;;2.90;;
29362;SDS011;16349;53.672;10.014;2023-02-28T03:50:29;5.03;;;3.00;;
29362;SDS011;16349;53.672;10.014;2023-02-28T03:53:04;3.40;;;3.10;;
29362;SDS011;16349;53.672;10.014;2023-02-28T03:55:36;6.30;;;2.67;;
29362;SDS011;16349;53.672;10.014;2023-02-28T03:58:09;2.70;;;2.50;;
29362;SDS011;16349;53.672;10.014;2023-02-28T04:00:45;4.83;;;2.90;;
29362;SDS011;16349;53.672;10.014;2023-02-28T04:03:15;4.03;;;2.83;;
29362;SDS011;16349;53.672;10.014;2023-02-28T04:05:47;8.83;;;2.63;;
29362;SDS011;16349;53.672;10.014;2023-02-28T04:08:37;3.80;;;2.90;;
29362;SDS011;16349;53.672;10.014;2023-02-28T04:11:06;3.47;;;2.73;;
29362;SDS011;16349;53.672;10.014;2023-02-28T04:13:43;4.30;;;3.00;;
29362;SDS011;16349;53.672;10.014;2023-02-28T04:16:10;5.97;;;3.07;;
29362;SDS011;16349;53.672;10.014;2023-02-28T04:18:37;7.00;;;2.90;;
29362;SDS011;16349;53.672;10.014;2023-02-28T04:21:25;4.43;;;2.80;;
29362;SDS011;16349;53.672;10.014;2023-02-28T04:24:17;3.93;;;3.00;;
29362;SDS011;16349;53.672;10.014;2023-02-28T04:26:46;4.27;;;3.10;;
29362;SDS011;16349;53.672;10.014;2023-02-28T04:29:17;6.00;;;3.10;;
29362;SDS011;16349;53.672;10.014;2023-02-28T04:31:45;4.57;;;2.87;;
29362;SDS011;16349;53.672;10.014;2023-02-28T04:34:12;3.30;;;2.67;;
29362;SDS011;16349;53.672;10.014;2023-02-28T04:36:39;8.77;;;4.07;;
29362;SDS011;16349;53.672;10.014;2023-02-28T04:39:06;4.23;;;2.90;;
29362;SDS011;16349;53.672;10.014;2023-02-28T04:41:36;5.00;;;2.73;;
29362;SDS011;16349;53.672;10.014;2023-02-28T04:44:03;4.93;;;2.30;;
29362;SDS011;16349;53.672;10.014;2023-02-28T04:46:30;4.70;;;3.03;;
29362;SDS011;16349;53.672;10.014;2023-02-28T04:48:58;5.40;;;2.83;;
29362;SDS011;16349;53.672;10.014;2023-02-28T04:51:25;5.57;;;3.13;;
29362;SDS011;16349;53.672;10.014;2023-02-28T04:53:52;3.73;;;2.43;;
29362;SDS011;16349;53.672;10.014;2023-02-28T04:56:19;3.93;;;2.73;;
29362;SDS011;16349;53.672;10.014;2023-02-28T04:58:48;8.40;;;3.23;;
29362;SDS011;16349;53.672;10.014;2023-02-28T05:01:17;4.20;;;2.83;;
29362;SDS011;16349;53.672;10.014;2023-02-28T05:03:45;3.47;;;2.53;;
29362;SDS011;16349;53.672;10.014;2023-02-28T05:06:13;4.77;;;2.70;;
29362;SDS011;16349;53.672;10.014;2023-02-28T05:08:41;4.70;;;2.73;;
29362;SDS011;16349;53.672;10.014;2023-02-28T05:11:12;5.20;;;2.70;;
29362;SDS011;16349;53.672;10.014;2023-02-28T05:13:41;7.47;;;2.90;;
29362;SDS011;16349;53.672;10.014;2023-02-28T05:16:10;3.70;;;2.40;;
29362;SDS011;16349;53.672;10.014;2023-02-28T05:18:37;5.97;;;3.30;;
29362;SDS011;16349;53.672;10.014;2023-02-28T05:21:04;2.87;;;2.60;;
29362;SDS011;16349;53.672;10.014;2023-02-28T05:23:31;6.57;;;3.20;;
29362;SDS011;16349;53.672;10.014;2023-02-28T05:25:58;6.07;;;3.30;;
29362;SDS011;16349;53.672;10.014;2023-02-28T05:28:25;5.00;;;3.13;;
29362;SDS011;16349;53.672;10.014;2023-02-28T05:30:52;5.77;;;3.13;;
29362;SDS011;16349;53.672;10.014;2023-02-28T05:33:20;8.47;;;3.00;;
29362;SDS011;16349;53.672;10.014;2023-02-28T05:35:47;4.63;;;2.60;;
29362;SDS011;16349;53.672;10.014;2023-02-28T05:38:14;6.90;;;2.80;;
29362;SDS011;16349;53.672;10.014;2023-02-28T05:40:41;3.80;;;2.50;;
29362;SDS011;16349;53.672;10.014;2023-02-28T05:43:09;8.10;;;2.63;;
29362;SDS011;16349;53.672;10.014;2023-02-28T05:45:36;5.00;;;2.93;;
29362;SDS011;16349;53.672;10.014;2023-02-28T05:48:03;4.00;;;2.57;;
29362;SDS011;16349;53.672;10.014;2023-02-28T05:50:32;5.40;;;3.20;;
29362;SDS011;16349;53.672;10.014;2023-02-28T05:52:59;5.53;;;3.30;;
29362;SDS011;16349;53.672;10.014;2023-02-28T05:55:26;4.73;;;3.20;;
29362;SDS011;16349;53.672;10.014;2023-02-28T05:57:53;3.60;;;2.40;;
29362;SDS011;16349;53.672;10.014;2023-02-28T06:00:21;4.03;;;3.17;;
29362;SDS011;16349;53.672;10.014;2023-02-28T06:02:48;3.80;;;2.83;;
29362;SDS011;16349;53.672;10.014;2023-02-28T06:05:17;4.60;;;3.03;;
29362;SDS011;16349;53.672;10.014;2023-02-28T06:07:46;4.17;;;3.33;;
29362;SDS011;16349;53.672;10.014;2023-02-28T06:10:13;6.33;;;3.17;;
29362;SDS011;16349;53.672;10.014;2023-02-28T06:12:40;6.33;;;2.83;;
29362;SDS011;16349;53.672;10.014;2023-02-28T06:15:10;5.57;;;3.50;;
29362;SDS011;16349;53.672;10.014;2023-02-28T06:17:40;4.93;;;3.37;;
29362;SDS011;16349;53.672;10.014;2023-02-28T06:20:08;5.87;;;2.77;;
29362;SDS011;16349;53.672;10.014;2023-02-28T06:22:37;4.17;;;3.10;;
29362;SDS011;16349;53.672;10.014;2023-02-28T06:25:06;4.17;;;3.03;;
29362;SDS011;16349;53.672;10.014;2023-02-28T06:27:33;5.87;;;3.43;;
29362;SDS011;16349;53.672;10.014;2023-02-28T06:30:01;3.40;;;3.10;;
29362;SDS011;16349;53.672;10.014;2023-02-28T06:32:28;7.93;;;3.77;;
29362;SDS011;16349;53.672;10.014;2023-02-28T06:34:55;6.07;;;3.43;;
29362;SDS011;16349;53.672;10.014;2023-02-28T06:37:23;5.93;;;3.67;;
29362;SDS011;16349;53.672;10.014;2023-02-28T06:39:53;6.53;;;3.77;;
29362;SDS011;16349;53.672;10.014;2023-02-28T06:42:23;6.10;;;3.97;;
29362;SDS011;16349;53.672;10.014;2023-02-28T06:44:54;4.13;;;3.43;;
29362;SDS011;16349;53.672;10.014;2023-02-28T06:47:21;6.03;;;3.77;;
29362;SDS011;16349;53.672;10.014;2023-02-28T06:49:48;5.23;;;3.67;;
29362;SDS011;16349;53.672;10.014;2023-02-28T06:52:15;5.57;;;3.20;;
29362;SDS011;16349;53.672;10.014;2023-02-28T06:54:42;5.57;;;4.30;;
29362;SDS011;16349;53.672;10.014;2023-02-28T06:57:09;6.43;;;3.90;;
29362;SDS011;16349;53.672;10.014;2023-02-28T06:59:37;9.17;;;3.67;;
29362;SDS011;16349;53.672;10.014;2023-02-28T07:02:04;6.87;;;3.50;;
29362;SDS011;16349;53.672;10.014;2023-02-28T07:04:33;5.67;;;3.50;;
29362;SDS011;16349;53.672;10.014;2023-02-28T07:07:01;7.47;;;3.40;;
29362;SDS011;16349;53.672;10.014;2023-02-28T07:09:28;5.80;;;3.50;;
29362;SDS011;16349;53.672;10.014;2023-02-28T07:11:56;7.47;;;3.83;;
29362;SDS011;16349;53.672;10.014;2023-02-28T07:14:23;6.27;;;3.87;;
29362;SDS011;16349;53.672;10.014;2023-02-28T07:16:51;6.50;;;3.80;;
29362;SDS011;16349;53.672;10.014;2023-02-28T07:19:36;4.13;;;3.70;;
29362;SDS011;16349;53.672;10.014;2023-02-28T07:22:03;7.33;;;4.13;;
29362;SDS011;16349;53.672;10.014;2023-02-28T07:24:32;5.33;;;4.20;;
29362;SDS011;16349;53.672;10.014;2023-02-28T07:26:59;7.27;;;4.40;;
29362;SDS011;16349;53.672;10.014;2023-02-28T07:29:26;5.40;;;4.13;;
29362;SDS011;16349;53.672;10.014;2023-02-28T07:31:55;7.67;;;4.17;;
29362;SDS011;16349;53.672;10.014;2023-02-28T07:34:23;5.10;;;4.40;;
29362;SDS011;16349;53.672;10.014;2023-02-28T07:36:52;6.70;;;4.67;;
29362;SDS011;16349;53.672;10.014;2023-02-28T07:39:19;5.67;;;3.70;;
29362;SDS011;16349;53.672;10.014;2023-02-28T07:41:46;10.10;;;4.97;;
29362;SDS011;16349;53.672;10.014;2023-02-28T07:44:14;6.53;;;4.10;;
29362;SDS011;16349;53.672;10.014;2023-02-28T07:46:40;9.30;;;4.20;;
29362;SDS011;16349;53.672;10.014;2023-02-28T07:49:08;10.90;;;5.20;;
29362;SDS011;16349;53.672;10.014;2023-02-28T07:51:35;6.43;;;4.40;;
29362;SDS011;16349;53.672;10.014;2023-02-28T07:54:02;6.83;;;4.20;;
29362;SDS011;16349;53.672;10.014;2023-02-28T07:56:29;7.00;;;5.13;;
29362;SDS011;16349;53.672;10.014;2023-02-28T07:58:58;9.23;;;5.40;;
29362;SDS011;16349;53.672;10.014;2023-02-28T08:01:26;9.07;;;5.33;;
29362;SDS011;16349;53.672;10.014;2023-02-28T08:04:16;12.37;;;5.17;;
29362;SDS011;16349;53.672;10.014;2023-02-28T08:06:44;7.50;;;4.53;;
29362;SDS011;16349;53.672;10.014;2023-02-28T08:09:11;7.77;;;5.07;;
29362;SDS011;16349;53.672;10.014;2023-02-28T08:11:37;11.17;;;5.50;;
29362;SDS011;16349;53.672;10.014;2023-02-28T08:14:05;7.47;;;4.83;;
29362;SDS011;16349;53.672;10.014;2023-02-28T08:16:32;5.67;;;3.60;;
29362;SDS011;16349;53.672;10.014;2023-02-28T08:18:59;7.97;;;4.13;;
29362;SDS011;16349;53.672;10.014;2023-02-28T08:21:27;9.37;;;4.10;;
29362;SDS011;16349;53.672;10.014;2023-02-28T08:23:55;6.83;;;3.90;;
29362;SDS011;16349;53.672;10.014;2023-02-28T08:26:23;5.50;;;4.17;;
29362;SDS011;16349;53.672;10.014;2023-02-28T08:28:49;6.27;;;3.30;;
29362;SDS011;16349;53.672;10.014;2023-02-28T08:31:17;5.27;;;3.17;;
29362;SDS011;16349;53.672;10.014;2023-02-28T08:33:44;5.83;;;3.27;;
29362;SDS011;16349;53.672;10.014;2023-02-28T08:36:14;7.07;;;3.00;;
29362;SDS011;16349;53.672;10.014;2023-02-28T08:38:43;4.20;;;3.03;;
29362;SDS011;16349;53.672;10.014;2023-02-28T08:41:11;5.10;;;2.90;;
29362;SDS011;16349;53.672;10.014;2023-02-28T08:43:39;5.70;;;3.17;;
29362;SDS011;16349;53.672;10.014;2023-02-28T08:46:08;5.10;;;3.10;;
29362;SDS011;16349;53.672;10.014;2023-02-28T08:48:38;3.60;;;3.20;;
29362;SDS011;16349;53.672;10.014;2023-02-28T08:51:06;5.13;;;3.17;;
29362;SDS011;16349;53.672;10.014;2023-02-28T08:53:35;4.27;;;2.37;;
29362;SDS011;16349;53.672;10.014;2023-02-28T08:56:05;5.43;;;2.23;;
29362;SDS011;16349;53.672;10.014;2023-02-28T08:58:34;2.67;;;2.43;;
29362;SDS011;16349;53.672;10.014;2023-02-28T09:01:07;6.50;;;3.07;;
29362;SDS011;16349;53.672;10.014;2023-02-28T09:03:35;3.03;;;2.20;;
29362;SDS011;16349;53.672;10.014;2023-02-28T09:06:03;3.00;;;2.33;;
29362;SDS011;16349;53.672;10.014;2023-02-28T09:08:30;1.97;;;1.80;;
29362;SDS011;16349;53.672;10.014;2023-02-28T09:10:58;1.80;;;1.70;;
29362;SDS011;16349;53.672;10.014;2023-02-28T09:13:26;4.47;;;2.40;;
29362;SDS011;16349;53.672;10.014;2023-02-28T09:15:53;3.77;;;2.23;;
29362;SDS011;16349;53.672;10.014;2023-02-28T09:18:24;4.90;;;2.27;;
29362;SDS011;16349;53.672;10.014;2023-02-28T09:20:51;2.13;;;1.93;;
29362;SDS011;16349;53.672;10.014;2023-02-28T09:23:18;4.10;;;1.90;;
29362;SDS011;16349;53.672;10.014;2023-02-28T09:25:45;2.43;;;1.50;;
29362;SDS011;16349;53.672;10.014;2023-02-28T09:28:13;3.07;;;1.87;;
29362;SDS011;16349;53.672;10.014;2023-02-28T09:30:43;3.40;;;1.40;;
29362;SDS011;16349;53.672;10.014;2023-02-28T09:33:11;4.50;;;1.63;;
29362;SDS011;16349;53.672;10.014;2023-02-28T09:35:38;6.07;;;2.50;;
29362;SDS011;16349;53.672;10.014;2023-02-28T09:38:06;2.13;;;1.40;;
29362;SDS011;16349;53.672;10.014;2023-02-28T09:40:35;1.30;;;1.20;;
29362;SDS011;16349;53.672;10.014;2023-02-28T09:43:04;4.27;;;1.47;;
29362;SDS011;16349;53.672;10.014;2023-02-28T09:45:32;3.63;;;1.70;;
29362;SDS011;16349;53.672;10.014;2023-02-28T09:48:07;4.33;;;1.40;;
29362;SDS011;16349;53.672;10.014;2023-02-28T09:50:39;6.27;;;1.30;;
29362;SDS011;16349;53.672;10.014;2023-02-28T09:53:11;3.10;;;1.37;;
29362;SDS011;16349;53.672;10.014;2023-02-28T09:55:47;4.73;;;1.50;;
29362;SDS011;16349;53.672;10.014;2023-02-28T09:58:18;2.60;;;1.57;;
29362;SDS011;16349;53.672;10.014;2023-02-28T10:00:49;3.07;;;1.67;;
29362;SDS011;16349;53.672;10.014;2023-02-28T10:03:30;4.33;;;1.67;;
29362;SDS011;16349;53.672;10.014;2023-02-28T10:06:04;3.07;;;1.40;;
29362;SDS011;16349;53.672;10.014;2023-02-28T10:08:39;2.17;;;1.50;;
29362;SDS011;16349;53.672;10.014;2023-02-28T10:11:11;1.70;;;1.60;;
29362;SDS011;16349;53.672;10.014;2023-02-28T10:13:43;3.43;;;1.53;;
29362;SDS011;16349;53.672;10.014;2023-02-28T10:16:16;2.20;;;1.40;;
29362;SDS011;16349;53.672;10.014;2023-02-28T10:18:52;1.97;;;1.37;;
29362;SDS011;16349;53.672;10.014;2023-02-28T10:21:23;3.57;;;1.70;;
29362;SDS011;16349;53.672;10.014;2023-02-28T10:23:56;3.50;;;1.30;;
29362;SDS011;16349;53.672;10.014;2023-02-28T10:26:29;2.23;;;1.27;;
29362;SDS011;16349;53.672;10.014;2023-02-28T10:28:58;4.00;;;1.80;;
29362;SDS011;16349;53.672;10.014;2023-02-28T10:31:25;1.63;;;1.50;;
29362;SDS011;16349;53.672;10.014;2023-02-28T10:33:54;2.27;;;1.30;;
29362;SDS011;16349;53.672;10.014;2023-02-28T10:36:21;1.73;;;1.50;;
29362;SDS011;16349;53.672;10.014;2023-02-28T10:38:50;2.40;;;1.70;;
29362;SDS011;16349;53.672;10.014;2023-02-28T10:41:26;2.70;;;1.60;;
29362;SDS011;16349;53.672;10.014;2023-02-28T10:44:12;2.90;;;1.20;;
29362;SDS011;16349;53.672;10.014;2023-02-28T10:46:41;1.87;;;1.30;;
29362;SDS011;16349;53.672;10.014;2023-02-28T10:49:13;1.30;;;1.20;;
29362;SDS011;16349;53.672;10.014;2023-02-28T10:51:43;1.97;;;1.30;;
29362;SDS011;16349;53.672;10.014;2023-02-28T10:54:14;2.57;;;1.20;;
29362;SDS011;16349;53.672;10.014;2023-02-28T10:56:42;2.30;;;1.30;;
29362;SDS011;16349;53.672;10.014;2023-02-28T10:59:22;1.67;;;1.57;;
29362;SDS011;16349;53.672;10.014;2023-02-28T11:01:54;1.30;;;1.20;;
29362;SDS011;16349;53.672;10.014;2023-02-28T11:04:33;2.00;;;1.30;;
29362;SDS011;16349;53.672;10.014;2023-02-28T11:07:03;3.67;;;1.33;;
29362;SDS011;16349;53.672;10.014;2023-02-28T11:09:33;2.27;;;1.10;;
29362;SDS011;16349;53.672;10.014;2023-02-28T11:12:01;2.53;;;1.50;;
29362;SDS011;16349;53.672;10.014;2023-02-28T11:14:31;6.50;;;3.70;;
29362;SDS011;16349;53.672;10.014;2023-02-28T11:17:11;2.73;;;1.60;;
29362;SDS011;16349;53.672;10.014;2023-02-28T11:19:45;1.40;;;1.10;;
29362;SDS011;16349;53.672;10.014;2023-02-28T11:22:16;2.40;;;1.20;;
29362;SDS011;16349;53.672;10.014;2023-02-28T11:24:46;1.73;;;1.20;;
29362;SDS011;16349;53.672;10.014;2023-02-28T11:27:25;2.20;;;1.20;;
29362;SDS011;16349;53.672;10.014;2023-02-28T11:30:17;3.57;;;1.50;;
29362;SDS011;16349;53.672;10.014;2023-02-28T11:32:53;1.63;;;1.30;;
29362;SDS011;16349;53.672;10.014;2023-02-28T11:35:23;2.50;;;1.30;;
29362;SDS011;16349;53.672;10.014;2023-02-28T11:37:53;1.40;;;1.13;;
29362;SDS011;16349;53.672;10.014;2023-02-28T11:40:21;1.80;;;1.37;;
29362;SDS011;16349;53.672;10.014;2023-02-28T11:43:05;1.50;;;1.30;;
29362;SDS011;16349;53.672;10.014;2023-02-28T11:45:50;1.07;;;1.00;;
29362;SDS011;16349;53.672;10.014;2023-02-28T11:48:30;2.10;;;1.20;;
29362;SDS011;16349;53.672;10.014;2023-02-28T11:51:08;3.47;;;1.10;;
29362;SDS011;16349;53.672;10.014;2023-02-28T11:53:48;2.27;;;1.40;;
29362;SDS011;16349;53.672;10.014;2023-02-28T11:56:24;2.20;;;1.50;;
29362;SDS011;16349;53.672;10.014;2023-02-28T11:59:01;1.93;;;1.13;;
29362;SDS011;16349;53.672;10.014;2023-02-28T12:01:43;2.23;;;1.40;;
29362;SDS011;16349;53.672;10.014;2023-02-28T12:04:25;1.93;;;1.40;;
29362;SDS011;16349;53.672;10.014;2023-02-28T12:07:03;3.77;;;2.63;;
29362;SDS011;16349;53.672;10.014;2023-02-28T12:09:45;1.17;;;1.07;;
29362;SDS011;16349;53.672;10.014;2023-02-28T12:12:20;1.93;;;1.30;;
29362;SDS011;16349;53.672;10.014;2023-02-28T12:15:05;2.50;;;1.20;;
29362;SDS011;16349;53.672;10.014;2023-02-28T12:17:55;2.83;;;1.27;;
29362;SDS011;16349;53.672;10.014;2023-02-28T12:20:35;4.80;;;1.30;;
29362;SDS011;16349;53.672;10.014;2023-02-28T12:23:15;1.70;;;1.13;;
29362;SDS011;16349;53.672;10.014;2023-02-28T12:26:06;2.17;;;1.40;;
29362;SDS011;16349;53.672;10.014;2023-02-28T12:28:43;2.40;;;1.30;;
29362;SDS011;16349;53.672;10.014;2023-02-28T12:31:14;2.30;;;1.37;;
29362;SDS011;16349;53.672;10.014;2023-02-28T12:33:45;2.73;;;1.20;;
29362;SDS011;16349;53.672;10.014;2023-02-28T12:36:16;1.80;;;1.30;;
29362;SDS011;16349;53.672;10.014;2023-02-28T12:38:49;2.13;;;1.30;;
29362;SDS011;16349;53.672;10.014;2023-02-28T12:41:22;1.47;;;1.20;;
29362;SDS011;16349;53.672;10.014;2023-02-28T12:43:55;1.77;;;1.57;;
29362;SDS011;16349;53.672;10.014;2023-02-28T12:46:28;1.87;;;1.50;;
29362;SDS011;16349;53.672;10.014;2023-02-28T12:48:58;2.37;;;1.10;;
29362;SDS011;16349;53.672;10.014;2023-02-28T12:51:30;2.63;;;1.43;;
29362;SDS011;16349;53.672;10.014;2023-02-28T12:54:02;3.43;;;1.50;;
29362;SDS011;16349;53.672;10.014;2023-02-28T12:56:38;1.43;;;1.30;;
29362;SDS011;16349;53.672;10.014;2023-02-28T12:59:13;2.90;;;1.50;;
29362;SDS011;16349;53.672;10.014;2023-02-28T13:01:57;1.87;;;1.20;;
29362;SDS011;16349;53.672;10.014;2023-02-28T13:04:56;1.57;;;1.40;;
29362;SDS011;16349;53.672;10.014;2023-02-28T13:10:42;3.47;;;1.40;;
29362;SDS011;16349;53.672;10.014;2023-02-28T13:13:18;1.63;;;1.13;;
29362;SDS011;16349;53.672;10.014;2023-02-28T13:16:01;1.40;;;1.30;;
29362;SDS011;16349;53.672;10.014;2023-02-28T13:18:32;2.30;;;1.73;;
29362;SDS011;16349;53.672;10.014;2023-02-28T13:21:03;1.83;;;1.30;;
29362;SDS011;16349;53.672;10.014;2023-02-28T13:23:38;1.83;;;1.10;;
29362;SDS011;16349;53.672;10.014;2023-02-28T13:26:29;1.50;;;1.30;;
29362;SDS011;16349;53.672;10.014;2023-02-28T13:29:37;4.47;;;0.90;;
29362;SDS011;16349;53.672;10.014;2023-02-28T13:38:22;3.03;;;1.20;;
29362;SDS011;16349;53.672;10.014;2023-02-28T13:40:51;1.73;;;1.13;;
29362;SDS011;16349;53.672;10.014;2023-02-28T13:43:18;1.90;;;1.20;;
29362;SDS011;16349;53.672;10.014;2023-02-28T13:48:36;2.00;;;1.30;;
29362;SDS011;16349;53.672;10.014;2023-02-28T13:51:27;1.40;;;1.10;;
29362;SDS011;16349;53.672;10.014;2023-02-28T13:54:07;1.63;;;1.03;;
29362;SDS011;16349;53.672;10.014;2023-02-28T13:57:06;1.10;;;1.00;;
29362;SDS011;16349;53.672;10.014;2023-02-28T13:59:46;3.03;;;1.00;;
29362;SDS011;16349;53.672;10.014;2023-02-28T14:02:32;4.47;;;1.60;;
29362;SDS011;16349;53.672;10.014;2023-02-28T14:05:21;1.40;;;1.07;;
29362;SDS011;16349;53.672;10.014;2023-02-28T14:07:52;2.07;;;1.53;;
29362;SDS011;16349;53.672;10.014;2023-02-28T14:10:25;1.20;;;1.10;;
29362;SDS011;16349;53.672;10.014;2023-02-28T14:12:59;2.00;;;1.50;;
29362;SDS011;16349;53.672;10.014;2023-02-28T14:18:28;1.57;;;1.03;;
29362;SDS011;16349;53.672;10.014;2023-02-28T14:20:58;0.80;;;0.80;;
29362;SDS011;16349;53.672;10.014;2023-02-28T14:23:38;1.83;;;1.30;;
29362;SDS011;16349;53.672;10.014;2023-02-28T14:26:19;1.40;;;1.20;;
29362;SDS011;16349;53.672;10.014;2023-02-28T14:29:06;1.80;;;1.17;;
29362;SDS011;16349;53.672;10.014;2023-02-28T14:31:45;1.57;;;1.10;;
29362;SDS011;16349;53.672;10.014;2023-02-28T14:34:35;1.23;;;1.00;;
29362;SDS011;16349;53.672;10.014;2023-02-28T14:37:09;2.57;;;1.30;;
29362;SDS011;16349;53.672;10.014;2023-02-28T14:39:40;3.17;;;1.47;;
29362;SDS011;16349;53.672;10.014;2023-02-28T14:44:53;3.10;;;1.43;;
29362;SDS011;16349;53.672;10.014;2023-02-28T14:47:21;3.93;;;1.50;;
29362;SDS011;16349;53.672;10.014;2023-02-28T14:49:53;4.20;;;1.00;;
29362;SDS011;16349;53.672;10.014;2023-02-28T14:52:21;1.80;;;1.27;;
29362;SDS011;16349;53.672;10.014;2023-02-28T14:54:51;1.30;;;1.00;;
29362;SDS011;16349;53.672;10.014;2023-02-28T14:57:21;2.50;;;1.20;;
29362;SDS011;16349;53.672;10.014;2023-02-28T14:59:56;1.93;;;1.00;;
29362;SDS011;16349;53.672;10.014;2023-02-28T15:02:30;2.07;;;1.07;;
29362;SDS011;16349;53.672;10.014;2023-02-28T15:05:09;2.17;;;1.10;;
29362;SDS011;16349;53.672;10.014;2023-02-28T15:07:49;1.20;;;1.00;;
29362;SDS011;16349;53.672;10.014;2023-02-28T15:10:27;1.83;;;1.30;;
29362;SDS011;16349;53.672;10.014;2023-02-28T15:12:56;1.20;;;1.10;;
29362;SDS011;16349;53.672;10.014;2023-02-28T15:15:25;1.07;;;0.97;;
29362;SDS011;16349;53.672;10.014;2023-02-28T15:18:01;1.37;;;1.10;;
29362;SDS011;16349;53.672;10.014;2023-02-28T15:20:32;1.80;;;1.20;;
29362;SDS011;16349;53.672;10.014;2023-02-28T15:23:00;1.53;;;1.10;;
29362;SDS011;16349;53.672;10.014;2023-02-28T15:25:28;1.37;;;1.20;;